Time,TemperatureF,DewpointF,PressureIn,WindDirection,WindDirectionDegrees,WindSpeedMPH,WindSpeedGustMPH,Humidity,HourlyPrecipIn,Conditions,Clouds,dailyrainin,SoftwareType,DateUTC
2013-01-02 00:00:00,52.3,51.2,29.97,SSE,156,2.0,3.0,96,0.00,,---,0.00,VWS V14.00,2013-01-02 05:00:00,
2013-01-02 00:05:00,52.4,51.0,29.97,NW,314,2.0,4.0,95,0.00,,---,0.00,VWS V14.00,2013-01-02 05:05:00,
2013-01-02 00:10:00,52.4,51.3,29.97,NW,314,0.0,4.0,96,0.00,,---,0.00,VWS V14.00,2013-01-02 05:10:00,
2013-01-02 00:15:00,52.4,51.3,29.96,NW,314,2.0,4.0,96,0.00,,---,0.00,VWS V14.00,2013-01-02 05:15:00,
2013-01-02 00:20:00,52.5,51.4,29.96,NW,316,1.0,4.0,96,0.00,,---,0.00,VWS V14.00,2013-01-02 05:20:00,
2013-01-02 00:25:00,52.5,51.4,29.96,NW,316,0.0,4.0,96,0.00,,---,0.00,VWS V14.00,2013-01-02 05:25:00,
2013-01-02 00:30:00,52.5,51.4,29.95,NW,316,0.0,0.0,96,0.00,,---,0.00,VWS V14.00,2013-01-02 05:30:00,
2013-01-02 00:35:00,52.5,51.1,29.95,NW,316,0.0,0.0,95,0.00,,---,0.00,VWS V14.00,2013-01-02 05:35:00,
2013-01-02 00:40:00,52.4,51.0,29.94,NW,316,0.0,0.0,95,0.00,,---,0.00,VWS V14.00,2013-01-02 05:40:00,
2013-01-02 00:45:00,52.3,50.9,29.94,NW,316,0.0,1.0,95,0.00,,---,0.00,VWS V14.00,2013-01-02 05:45:00,
2013-01-02 00:50:00,52.3,51.2,29.93,ENE,65,2.0,3.0,96,0.00,,---,0.00,VWS V14.00,2013-01-02 05:50:00,
2013-01-02 00:55:00,52.2,51.1,29.93,ENE,65,1.0,3.0,96,0.00,,---,0.00,VWS V14.00,2013-01-02 05:55:00,
2013-01-02 01:00:00,52.2,51.1,29.93,ENE,65,0.0,0.0,96,0.00,,---,0.00,VWS V14.00,2013-01-02 06:00:00,
2013-01-02 01:05:00,52.3,51.2,29.92,ENE,65,0.0,2.0,96,0.00,,---,0.00,VWS V14.00,2013-01-02 06:05:00,
2013-01-02 01:10:00,52.3,51.2,29.92,ENE,65,0.0,2.0,96,0.00,,---,0.00,VWS V14.00,2013-01-02 06:10:00,
2013-01-02 01:15:00,52.3,51.2,29.92,ENE,66,2.0,2.0,96,0.00,,---,0.00,VWS V14.00,2013-01-02 06:15:00,
2013-01-02 01:20:00,52.3,51.2,29.92,ENE,65,0.0,2.0,96,0.00,,---,0.00,VWS V14.00,2013-01-02 06:20:00,
2013-01-02 01:25:00,52.3,51.2,29.92,ENE,65,0.0,2.0,96,0.00,,---,0.00,VWS V14.00,2013-01-02 06:25:00,
2013-01-02 01:30:00,52.3,51.2,29.92,ENE,65,0.0,1.0,96,0.00,,---,0.00,VWS V14.00,2013-01-02 06:30:00,
2013-01-02 01:35:00,52.3,51.2,29.92,ENE,65,0.0,1.0,96,0.00,,---,0.00,VWS V14.00,2013-01-02 06:35:00,
2013-01-02 01:40:00,52.4,51.3,29.92,ENE,66,0.0,1.0,96,0.00,,---,0.00,VWS V14.00,2013-01-02 06:40:00,
2013-01-02 01:45:00,52.5,51.4,29.92,ENE,66,0.0,2.0,96,0.00,,---,0.00,VWS V14.00,2013-01-02 06:45:00,
2013-01-02 01:50:00,52.4,51.3,29.92,ENE,65,0.0,2.0,96,0.00,,---,0.00,VWS V14.00,2013-01-02 06:50:00,
2013-01-02 01:55:00,52.4,51.3,29.92,ENE,65,0.0,2.0,96,0.00,,---,0.00,VWS V14.00,2013-01-02 06:55:00,
2013-01-02 02:00:00,52.4,51.3,29.93,ENE,65,0.0,0.0,96,0.00,,---,0.00,VWS V14.00,2013-01-02 07:00:00,
2013-01-02 02:05:00,52.4,51.3,29.92,ENE,65,0.0,0.0,96,0.00,,---,0.00,VWS V14.00,2013-01-02 07:05:00,
2013-01-02 02:10:00,52.4,51.3,29.92,ENE,66,0.0,0.0,96,0.00,,---,0.00,VWS V14.00,2013-01-02 07:10:00,
2013-01-02 02:15:00,52.4,51.3,29.92,ENE,65,0.0,0.0,96,0.00,,---,0.00,VWS V14.00,2013-01-02 07:15:00,
2013-01-02 02:20:00,52.2,51.1,29.92,ENE,65,0.0,0.0,96,0.00,,---,0.00,VWS V14.00,2013-01-02 07:20:00,
2013-01-02 02:25:00,52.2,51.1,29.92,ENE,66,0.0,0.0,96,0.00,,---,0.00,VWS V14.00,2013-01-02 07:25:00,
2013-01-02 02:30:00,52.3,51.2,29.92,ENE,66,0.0,0.0,96,0.00,,---,0.00,VWS V14.00,2013-01-02 07:30:00,
2013-01-02 02:35:00,52.3,51.2,29.92,ENE,65,0.0,0.0,96,0.00,,---,0.00,VWS V14.00,2013-01-02 07:35:00,
2013-01-02 02:40:00,52.3,51.2,29.92,ENE,66,0.0,0.0,96,0.00,,---,0.00,VWS V14.00,2013-01-02 07:40:00,
2013-01-02 02:45:00,52.3,51.2,29.92,ENE,65,0.0,0.0,96,0.00,,---,0.00,VWS V14.00,2013-01-02 07:45:00,
2013-01-02 02:50:00,52.4,51.3,29.92,ENE,65,0.0,0.0,96,0.00,,---,0.00,VWS V14.00,2013-01-02 07:50:00,
2013-01-02 02:55:00,52.5,51.4,29.92,ENE,65,1.0,2.0,96,0.00,,---,0.00,VWS V14.00,2013-01-02 07:55:00,
2013-01-02 03:00:00,52.5,51.4,29.92,NE,47,2.0,3.0,96,0.00,,---,0.00,VWS V14.00,2013-01-02 08:00:00,
2013-01-02 03:05:00,52.6,51.5,29.92,NE,46,0.0,3.0,96,0.00,,---,0.00,VWS V14.00,2013-01-02 08:05:00,
2013-01-02 03:10:00,52.6,51.5,29.92,NE,46,0.0,3.0,96,0.00,,---,0.00,VWS V14.00,2013-01-02 08:10:00,
2013-01-02 03:15:00,52.6,51.5,29.92,NE,46,0.0,3.0,96,0.00,,---,0.00,VWS V14.00,2013-01-02 08:15:00,
2013-01-02 03:20:00,52.6,51.5,29.92,NE,46,0.0,3.0,96,0.00,,---,0.00,VWS V14.00,2013-01-02 08:20:00,
2013-01-02 03:25:00,52.5,51.4,29.92,NE,46,0.0,3.0,96,0.00,,---,0.00,VWS V14.00,2013-01-02 08:25:00,
2013-01-02 03:30:00,52.5,51.4,29.92,NE,46,0.0,0.0,96,0.00,,---,0.00,VWS V14.00,2013-01-02 08:30:00,
2013-01-02 03:35:00,52.6,51.5,29.92,NE,46,1.0,2.0,96,0.00,,---,0.00,VWS V14.00,2013-01-02 08:35:00,
2013-01-02 03:40:00,52.7,51.6,29.92,NE,46,0.0,2.0,96,0.00,,---,0.00,VWS V14.00,2013-01-02 08:40:00,
2013-01-02 03:45:00,52.8,51.7,29.92,NE,46,1.0,2.0,96,0.00,,---,0.00,VWS V14.00,2013-01-02 08:45:00,
2013-01-02 03:50:00,52.9,51.8,29.92,NE,46,1.0,3.0,96,0.00,,---,0.00,VWS V14.00,2013-01-02 08:50:00,
2013-01-02 03:55:00,52.9,51.8,29.92,NE,46,0.0,3.0,96,0.00,,---,0.00,VWS V14.00,2013-01-02 08:55:00,
2013-01-02 04:00:00,53.0,51.9,29.92,NE,46,0.0,1.0,96,0.00,,---,0.00,VWS V14.00,2013-01-02 09:00:00,
2013-01-02 04:05:00,53.0,51.9,29.92,NE,46,0.0,3.0,96,0.00,,---,0.00,VWS V14.00,2013-01-02 09:05:00,
2013-01-02 04:10:00,53.1,52.0,29.91,NE,46,0.0,3.0,96,0.00,,---,0.00,VWS V14.00,2013-01-02 09:10:00,
2013-01-02 04:15:00,53.1,52.0,29.91,NE,46,3.0,3.0,96,0.00,,---,0.00,VWS V14.00,2013-01-02 09:15:00,
2013-01-02 04:20:00,53.2,52.1,29.91,NNE,31,2.0,4.0,96,0.00,,---,0.00,VWS V14.00,2013-01-02 09:20:00,
2013-01-02 04:25:00,53.2,52.1,29.91,NE,34,3.0,5.0,96,0.00,,---,0.01,VWS V14.00,2013-01-02 09:25:00,
2013-01-02 04:30:00,53.2,52.1,29.91,NE,44,1.0,6.0,96,0.00,,---,0.01,VWS V14.00,2013-01-02 09:30:00,
2013-01-02 04:35:00,53.2,52.1,29.91,ENE,62,2.0,6.0,96,0.00,,---,0.01,VWS V14.00,2013-01-02 09:35:00,
2013-01-02 04:40:00,53.2,52.1,29.91,NE,51,0.0,6.0,96,0.00,,---,0.01,VWS V14.00,2013-01-02 09:40:00,
2013-01-02 04:45:00,53.1,52.0,29.90,NE,56,3.0,6.0,96,0.00,,---,0.01,VWS V14.00,2013-01-02 09:45:00,
2013-01-02 04:50:00,53.1,52.0,29.91,ENE,58,2.0,6.0,96,0.00,,---,0.01,VWS V14.00,2013-01-02 09:50:00,
2013-01-02 04:55:00,53.1,52.0,29.91,NNE,27,2.0,6.0,96,0.00,,---,0.01,VWS V14.00,2013-01-02 09:55:00,
2013-01-02 05:00:00,53.1,52.0,29.92,NNW,347,3.0,3.0,96,0.00,,---,0.02,VWS V14.00,2013-01-02 10:00:00,
2013-01-02 05:05:00,53.2,52.1,29.92,North,357,3.0,3.0,96,0.21,,---,0.03,VWS V14.00,2013-01-02 10:05:00,
2013-01-02 05:10:00,53.1,52.0,29.91,North,1,2.0,3.0,96,0.17,,---,0.05,VWS V14.00,2013-01-02 10:10:00,
2013-01-02 05:15:00,53.1,52.0,29.92,North,2,0.0,3.0,96,0.11,,---,0.05,VWS V14.00,2013-01-02 10:15:00,
2013-01-02 05:20:00,53.1,52.0,29.92,North,2,2.0,3.0,96,0.08,,---,0.06,VWS V14.00,2013-01-02 10:20:00,
2013-01-02 05:25:00,53.1,52.3,29.92,North,0,4.0,4.0,97,0.08,,---,0.06,VWS V14.00,2013-01-02 10:25:00,
2013-01-02 05:30:00,53.1,52.3,29.92,NNW,343,2.0,4.0,97,0.05,,---,0.06,VWS V14.00,2013-01-02 10:30:00,
2013-01-02 05:35:00,53.1,52.3,29.93,North,353,2.0,5.0,97,0.00,,---,0.06,VWS V14.00,2013-01-02 10:35:00,
2013-01-02 05:40:00,53.0,52.2,29.93,North,352,3.0,5.0,97,0.00,,---,0.06,VWS V14.00,2013-01-02 10:40:00,
2013-01-02 05:45:00,53.0,51.9,29.93,North,353,4.0,5.0,96,0.00,,---,0.06,VWS V14.00,2013-01-02 10:45:00,
2013-01-02 05:50:00,53.0,51.9,29.93,NNE,12,3.0,7.0,96,0.00,,---,0.06,VWS V14.00,2013-01-02 10:50:00,
2013-01-02 05:55:00,52.8,51.7,29.92,North,10,6.0,7.0,96,0.00,,---,0.07,VWS V14.00,2013-01-02 10:55:00,
2013-01-02 06:00:00,52.8,51.7,29.92,NNE,17,6.0,8.0,96,0.00,,---,0.07,VWS V14.00,2013-01-02 11:00:00,
2013-01-02 06:05:00,52.8,51.7,29.92,NNE,33,4.0,8.0,96,0.00,,---,0.07,VWS V14.00,2013-01-02 11:05:00,
2013-01-02 06:10:00,52.7,51.6,29.92,NNE,21,4.0,8.0,96,0.00,,---,0.07,VWS V14.00,2013-01-02 11:10:00,
2013-01-02 06:15:00,52.7,51.9,29.91,ENE,60,2.0,9.0,97,0.00,,---,0.07,VWS V14.00,2013-01-02 11:15:00,
2013-01-02 06:20:00,52.6,51.8,29.90,East,92,8.0,9.0,97,0.00,,---,0.07,VWS V14.00,2013-01-02 11:20:00,
2013-01-02 06:25:00,52.6,51.8,29.89,East,89,8.0,9.0,97,0.00,,---,0.08,VWS V14.00,2013-01-02 11:25:00,
2013-01-02 06:30:00,52.6,51.8,29.90,ENE,68,5.0,9.0,97,0.00,,---,0.08,VWS V14.00,2013-01-02 11:30:00,
2013-01-02 06:35:00,52.6,51.8,29.92,ENE,77,0.0,9.0,97,0.00,,---,0.08,VWS V14.00,2013-01-02 11:35:00,
2013-01-02 06:40:00,52.6,51.8,29.92,NNE,32,3.0,9.0,97,0.00,,---,0.08,VWS V14.00,2013-01-02 11:40:00,
2013-01-02 06:45:00,52.6,51.8,29.91,NNE,33,2.0,9.0,97,0.00,,---,0.08,VWS V14.00,2013-01-02 11:45:00,
2013-01-02 06:50:00,52.6,51.8,29.93,NNE,29,2.0,9.0,97,0.00,,---,0.08,VWS V14.00,2013-01-02 11:50:00,
2013-01-02 06:55:00,52.6,51.8,29.93,ENE,65,3.0,9.0,97,0.00,,---,0.08,VWS V14.00,2013-01-02 11:55:00,
2013-01-02 07:00:00,52.6,51.8,29.93,NNE,31,3.0,6.0,97,0.00,,---,0.08,VWS V14.00,2013-01-02 12:00:00,
2013-01-02 07:05:00,52.6,51.8,29.93,NNE,20,2.0,6.0,97,0.00,,---,0.08,VWS V14.00,2013-01-02 12:05:00,
2013-01-02 07:10:00,52.6,51.8,29.94,NNE,16,5.0,7.0,97,0.00,,---,0.08,VWS V14.00,2013-01-02 12:10:00,
2013-01-02 07:15:00,52.6,51.8,29.94,NNE,16,4.0,7.0,97,0.00,,---,0.08,VWS V14.00,2013-01-02 12:15:00,
2013-01-02 07:20:00,52.6,51.8,29.94,NNE,25,3.0,7.0,97,0.00,,---,0.08,VWS V14.00,2013-01-02 12:20:00,
2013-01-02 07:25:00,52.6,51.8,29.94,NE,37,2.0,8.0,97,0.00,,---,0.09,VWS V14.00,2013-01-02 12:25:00,
2013-01-02 07:30:00,52.5,51.7,29.95,NNE,25,4.0,6.0,97,0.00,,---,0.09,VWS V14.00,2013-01-02 12:30:00,
2013-01-02 07:35:00,52.5,51.7,29.95,NNE,21,6.0,8.0,97,0.00,,---,0.09,VWS V14.00,2013-01-02 12:35:00,
2013-01-02 07:40:00,52.5,51.7,29.95,North,0,6.0,9.0,97,0.00,,---,0.09,VWS V14.00,2013-01-02 12:40:00,
2013-01-02 07:45:00,52.5,51.7,29.95,North,11,4.0,9.0,97,0.00,,---,0.09,VWS V14.00,2013-01-02 12:45:00,
2013-01-02 07:50:00,52.4,51.3,29.94,NE,48,3.0,9.0,96,0.00,,---,0.10,VWS V14.00,2013-01-02 12:50:00,
2013-01-02 07:55:00,52.4,51.6,29.96,North,356,6.0,9.0,97,0.12,,---,0.11,VWS V14.00,2013-01-02 12:55:00,
2013-01-02 08:00:00,52.4,51.3,29.96,NNE,23,5.0,6.0,96,0.07,,---,0.11,VWS V14.00,2013-01-02 13:00:00,
2013-01-02 08:05:00,52.3,51.2,29.95,NNE,19,5.0,8.0,96,0.05,,---,0.12,VWS V14.00,2013-01-02 13:05:00,
2013-01-02 08:10:00,52.3,51.2,29.96,North,2,4.0,8.0,96,0.10,,---,0.13,VWS V14.00,2013-01-02 13:10:00,
2013-01-02 08:15:00,52.3,51.2,29.97,NNW,343,5.0,8.0,96,0.10,,---,0.13,VWS V14.00,2013-01-02 13:15:00,
2013-01-02 08:20:00,52.3,51.2,29.97,North,11,5.0,8.0,96,0.06,,---,0.13,VWS V14.00,2013-01-02 13:20:00,
2013-01-02 08:25:00,52.3,51.2,29.97,NNE,19,9.0,10.0,96,0.05,,---,0.14,VWS V14.00,2013-01-02 13:25:00,
2013-01-02 08:30:00,52.1,51.0,29.97,NNE,14,12.0,14.0,96,0.09,,---,0.15,VWS V14.00,2013-01-02 13:30:00,
2013-01-02 08:35:00,51.7,50.6,29.98,NNE,19,7.0,16.0,96,0.10,,---,0.16,VWS V14.00,2013-01-02 13:35:00,
2013-01-02 08:40:00,51.5,50.4,29.98,North,3,6.0,16.0,96,0.10,,---,0.16,VWS V14.00,2013-01-02 13:40:00,
2013-01-02 08:45:00,51.3,50.2,29.99,NNE,26,11.0,16.0,96,0.06,,---,0.16,VWS V14.00,2013-01-02 13:45:00,
2013-01-02 08:50:00,51.1,50.0,29.99,NE,52,9.0,16.0,96,0.04,,---,0.16,VWS V14.00,2013-01-02 13:50:00,
2013-01-02 08:55:00,50.9,49.8,29.99,NNE,13,6.0,16.0,96,0.00,,---,0.16,VWS V14.00,2013-01-02 13:55:00,
2013-01-02 09:00:00,51.0,49.9,29.99,NNE,16,11.0,12.0,96,0.00,,---,0.17,VWS V14.00,2013-01-02 14:00:00,
2013-01-02 09:05:00,50.8,49.7,30.00,NNE,14,12.0,15.0,96,0.00,,---,0.17,VWS V14.00,2013-01-02 14:05:00,
2013-01-02 09:10:00,50.8,49.7,30.00,NNE,20,6.0,15.0,96,0.00,,---,0.17,VWS V14.00,2013-01-02 14:10:00,
2013-01-02 09:15:00,50.6,49.5,30.01,NNE,22,10.0,15.0,96,0.00,,---,0.17,VWS V14.00,2013-01-02 14:15:00,
2013-01-02 09:20:00,50.6,49.5,30.02,North,7,9.0,15.0,96,0.00,,---,0.17,VWS V14.00,2013-01-02 14:20:00,
2013-01-02 09:25:00,50.3,49.2,30.01,North,5,11.0,15.0,96,0.00,,---,0.17,VWS V14.00,2013-01-02 14:25:00,
2013-01-02 09:30:00,50.1,49.0,30.02,North,352,11.0,14.0,96,0.00,,---,0.17,VWS V14.00,2013-01-02 14:30:00,
2013-01-02 09:35:00,50.0,48.9,30.02,North,355,9.0,14.0,96,0.00,,---,0.17,VWS V14.00,2013-01-02 14:35:00,
2013-01-02 09:40:00,49.9,48.8,30.00,NE,36,8.0,14.0,96,0.00,,---,0.17,VWS V14.00,2013-01-02 14:40:00,
2013-01-02 09:45:00,49.9,48.8,30.02,NE,52,6.0,14.0,96,0.00,,---,0.17,VWS V14.00,2013-01-02 14:45:00,
2013-01-02 09:50:00,49.9,48.5,30.02,North,3,10.0,14.0,95,0.00,,---,0.17,VWS V14.00,2013-01-02 14:50:00,
2013-01-02 09:55:00,50.0,48.6,30.03,NNE,21,9.0,14.0,95,0.00,,---,0.17,VWS V14.00,2013-01-02 14:55:00,
2013-01-02 10:01:00,50.0,48.6,30.03,NNE,27,7.0,12.0,95,0.00,,---,0.17,VWS V14.00,2013-01-02 15:01:00,
2013-01-02 10:06:00,49.8,48.4,30.03,North,7,8.0,14.0,95,0.00,,---,0.17,VWS V14.00,2013-01-02 15:06:00,
2013-01-02 10:11:00,49.8,48.4,30.03,WNW,301,6.0,14.0,95,0.00,,---,0.17,VWS V14.00,2013-01-02 15:11:00,
2013-01-02 10:16:00,49.6,48.2,30.03,NNE,13,8.0,14.0,95,0.00,,---,0.17,VWS V14.00,2013-01-02 15:16:00,
2013-01-02 10:21:00,49.5,48.1,30.03,NNE,13,9.0,16.0,95,0.00,,---,0.17,VWS V14.00,2013-01-02 15:21:00,
2013-01-02 10:26:00,49.6,48.0,30.03,NNE,19,6.0,16.0,94,0.00,,---,0.17,VWS V14.00,2013-01-02 15:26:00,
2013-01-02 10:31:00,49.5,47.8,30.04,North,350,13.0,13.0,94,0.00,,---,0.17,VWS V14.00,2013-01-02 15:31:00,
2013-01-02 10:36:00,49.4,47.8,30.04,NNE,14,10.0,15.0,94,0.00,,---,0.17,VWS V14.00,2013-01-02 15:36:00,
2013-01-02 10:41:00,49.3,47.7,30.04,NNE,29,9.0,15.0,94,0.00,,---,0.17,VWS V14.00,2013-01-02 15:41:00,
2013-01-02 10:46:00,49.3,47.7,30.04,North,11,9.0,15.0,94,0.00,,---,0.17,VWS V14.00,2013-01-02 15:46:00,
2013-01-02 10:51:00,49.3,47.7,30.04,North,358,8.0,15.0,94,0.00,,---,0.17,VWS V14.00,2013-01-02 15:51:00,
2013-01-02 10:56:00,49.3,47.4,30.04,NE,41,9.0,15.0,93,0.00,,---,0.17,VWS V14.00,2013-01-02 15:56:00,
2013-01-02 11:01:00,49.2,47.3,30.04,North,354,10.0,13.0,93,0.00,,---,0.17,VWS V14.00,2013-01-02 16:01:00,
2013-01-02 11:06:00,49.0,47.1,30.05,NE,42,8.0,14.0,93,0.00,,---,0.17,VWS V14.00,2013-01-02 16:06:00,
2013-01-02 11:11:00,48.9,47.0,30.05,North,5,7.0,14.0,93,0.00,,---,0.17,VWS V14.00,2013-01-02 16:11:00,
2013-01-02 11:16:00,48.8,46.9,30.05,NE,41,8.0,15.0,93,0.00,,---,0.17,VWS V14.00,2013-01-02 16:16:00,
2013-01-02 11:21:00,48.9,47.0,30.05,North,357,5.0,15.0,93,0.00,,---,0.17,VWS V14.00,2013-01-02 16:21:00,
2013-01-02 11:26:00,48.9,47.0,30.05,NNE,33,10.0,15.0,93,0.00,,---,0.17,VWS V14.00,2013-01-02 16:26:00,
2013-01-02 11:31:00,48.8,46.9,30.03,NNE,29,10.0,12.0,93,0.00,,---,0.17,VWS V14.00,2013-01-02 16:31:00,
2013-01-02 11:36:00,48.8,46.9,30.04,North,350,7.0,17.0,93,0.00,,---,0.17,VWS V14.00,2013-01-02 16:36:00,
2013-01-02 11:41:00,48.9,46.7,30.05,NE,43,4.0,17.0,92,0.00,,---,0.17,VWS V14.00,2013-01-02 16:41:00,
2013-01-02 11:46:00,48.9,46.7,30.04,NNE,14,5.0,17.0,92,0.00,,---,0.17,VWS V14.00,2013-01-02 16:46:00,
2013-01-02 11:51:00,48.9,47.0,30.04,NNE,33,5.0,17.0,93,0.00,,---,0.17,VWS V14.00,2013-01-02 16:51:00,
2013-01-02 11:56:00,48.8,46.9,30.04,NNE,15,5.0,17.0,93,0.00,,---,0.17,VWS V14.00,2013-01-02 16:56:00,
2013-01-02 12:01:00,48.6,46.7,30.03,North,357,6.0,8.0,93,0.00,,---,0.17,VWS V14.00,2013-01-02 17:01:00,
2013-01-02 12:06:00,48.6,47.0,30.02,NNE,12,5.0,11.0,94,0.00,,---,0.17,VWS V14.00,2013-01-02 17:06:00,
2013-01-02 12:11:00,48.7,47.0,30.02,NNE,31,5.0,11.0,94,0.00,,---,0.17,VWS V14.00,2013-01-02 17:11:00,
2013-01-02 12:16:00,48.8,47.2,30.02,North,11,5.0,11.0,94,0.00,,---,0.17,VWS V14.00,2013-01-02 17:16:00,
2013-01-02 12:21:00,48.8,47.2,30.01,NE,54,6.0,11.0,94,0.00,,---,0.17,VWS V14.00,2013-01-02 17:21:00,
2013-01-02 12:26:00,49.1,47.5,30.01,NE,54,5.0,11.0,94,0.00,,---,0.17,VWS V14.00,2013-01-02 17:26:00,
2013-01-02 12:31:00,49.2,47.5,30.00,ENE,58,2.0,5.0,94,0.00,,---,0.17,VWS V14.00,2013-01-02 17:31:00,
2013-01-02 12:36:00,49.7,48.0,30.01,ENE,66,6.0,7.0,94,0.00,,---,0.17,VWS V14.00,2013-01-02 17:36:00,
2013-01-02 12:41:00,49.9,48.0,30.01,East,89,5.0,7.0,93,0.00,,---,0.17,VWS V14.00,2013-01-02 17:41:00,
2013-01-02 12:46:00,50.2,48.3,30.00,ENE,74,3.0,8.0,93,0.00,,---,0.17,VWS V14.00,2013-01-02 17:46:00,
2013-01-02 12:51:00,50.5,48.3,30.01,ENE,71,1.0,8.0,92,0.00,,---,0.17,VWS V14.00,2013-01-02 17:51:00,
2013-01-02 12:56:00,50.7,48.5,30.02,NNE,27,2.0,8.0,92,0.00,,---,0.17,VWS V14.00,2013-01-02 17:56:00,
2013-01-02 13:01:00,50.8,48.3,30.02,NNE,25,3.0,6.0,91,0.00,,---,0.17,VWS V14.00,2013-01-02 18:01:00,
2013-01-02 13:06:00,50.8,48.0,30.01,NNE,26,3.0,8.0,90,0.00,,---,0.17,VWS V14.00,2013-01-02 18:06:00,
2013-01-02 13:11:00,50.9,48.1,30.02,North,10,3.0,8.0,90,0.00,,---,0.17,VWS V14.00,2013-01-02 18:11:00,
2013-01-02 13:16:00,51.0,48.2,30.01,NNE,28,7.0,8.0,90,0.00,,---,0.17,VWS V14.00,2013-01-02 18:16:00,
2013-01-02 13:21:00,51.1,48.6,30.02,North,2,3.0,8.0,91,0.00,,---,0.17,VWS V14.00,2013-01-02 18:21:00,
2013-01-02 13:26:00,51.2,48.4,30.02,NNE,18,6.0,8.0,90,0.00,,---,0.17,VWS V14.00,2013-01-02 18:26:00,
2013-01-02 13:31:00,51.3,48.5,30.01,NNE,16,3.0,5.0,90,0.00,,---,0.17,VWS V14.00,2013-01-02 18:31:00,
2013-01-02 13:36:00,51.5,49.0,30.01,NNW,348,7.0,7.0,91,0.00,,---,0.17,VWS V14.00,2013-01-02 18:36:00,
2013-01-02 13:41:00,51.5,48.7,30.01,North,5,6.0,9.0,90,0.00,,---,0.17,VWS V14.00,2013-01-02 18:41:00,
2013-01-02 13:46:00,51.5,48.7,30.02,North,358,5.0,12.0,90,0.00,,---,0.17,VWS V14.00,2013-01-02 18:46:00,
2013-01-02 13:51:00,51.5,48.1,30.02,North,4,6.0,12.0,88,0.00,,---,0.17,VWS V14.00,2013-01-02 18:51:00,
2013-01-02 13:56:00,51.5,48.1,30.02,North,10,7.0,13.0,88,0.00,,---,0.17,VWS V14.00,2013-01-02 18:56:00,
2013-01-02 14:01:00,51.6,48.2,30.03,North,4,8.0,10.0,88,0.00,,---,0.17,VWS V14.00,2013-01-02 19:01:00,
2013-01-02 14:06:00,51.5,48.1,30.03,NE,36,9.0,12.0,88,0.00,,---,0.17,VWS V14.00,2013-01-02 19:06:00,
2013-01-02 14:11:00,51.4,48.0,30.03,North,354,13.0,13.0,88,0.00,,---,0.17,VWS V14.00,2013-01-02 19:11:00,
2013-01-02 14:16:00,51.0,47.6,30.02,NW,325,11.0,13.0,88,0.00,,---,0.17,VWS V14.00,2013-01-02 19:16:00,
2013-01-02 14:21:00,50.9,47.5,30.03,NNE,31,10.0,14.0,88,0.00,,---,0.17,VWS V14.00,2013-01-02 19:21:00,
2013-01-02 14:26:00,50.8,47.1,30.03,NE,50,7.0,14.0,87,0.00,,---,0.17,VWS V14.00,2013-01-02 19:26:00,
2013-01-02 14:31:00,50.9,47.2,30.03,NNE,14,8.0,12.0,87,0.00,,---,0.17,VWS V14.00,2013-01-02 19:31:00,
2013-01-02 14:36:00,51.0,47.0,30.03,NNE,33,7.0,15.0,86,0.00,,---,0.17,VWS V14.00,2013-01-02 19:36:00,
2013-01-02 14:41:00,51.0,47.0,30.03,North,10,11.0,15.0,86,0.00,,---,0.17,VWS V14.00,2013-01-02 19:41:00,
2013-01-02 14:46:00,50.9,46.9,30.03,North,5,4.0,15.0,86,0.00,,---,0.17,VWS V14.00,2013-01-02 19:46:00,
2013-01-02 14:51:00,50.8,46.5,30.04,North,354,5.0,15.0,85,0.00,,---,0.17,VWS V14.00,2013-01-02 19:51:00,
2013-01-02 14:56:00,50.7,46.0,30.04,NNE,26,9.0,15.0,84,0.00,,---,0.17,VWS V14.00,2013-01-02 19:56:00,
2013-01-02 15:01:00,50.6,46.6,30.04,North,11,8.0,10.0,86,0.00,,---,0.17,VWS V14.00,2013-01-02 20:01:00,
2013-01-02 15:06:00,50.6,46.3,30.05,North,5,5.0,10.0,85,0.00,,---,0.17,VWS V14.00,2013-01-02 20:06:00,
2013-01-02 15:11:00,50.8,46.8,30.05,North,6,5.0,10.0,86,0.00,,---,0.17,VWS V14.00,2013-01-02 20:11:00,
2013-01-02 15:16:00,50.7,46.4,30.05,NNE,13,10.0,12.0,85,0.00,,---,0.17,VWS V14.00,2013-01-02 20:16:00,
2013-01-02 15:21:00,50.5,46.2,30.05,North,4,8.0,12.0,85,0.00,,---,0.17,VWS V14.00,2013-01-02 20:21:00,
2013-01-02 15:26:00,50.2,45.9,30.05,NNE,13,6.0,12.0,85,0.00,,---,0.17,VWS V14.00,2013-01-02 20:26:00,
2013-01-02 15:31:00,50.1,46.1,30.06,NNE,24,6.0,12.0,86,0.00,,---,0.17,VWS V14.00,2013-01-02 20:31:00,
2013-01-02 15:36:00,49.9,45.9,30.06,NNE,15,3.0,12.0,86,0.00,,---,0.17,VWS V14.00,2013-01-02 20:36:00,
2013-01-02 15:41:00,49.8,45.8,30.06,NNE,22,5.0,12.0,86,0.00,,---,0.17,VWS V14.00,2013-01-02 20:41:00,
2013-01-02 15:46:00,49.7,46.0,30.06,NE,48,8.0,12.0,87,0.00,,---,0.17,VWS V14.00,2013-01-02 20:46:00,
2013-01-02 15:51:00,49.6,45.6,30.07,NE,37,12.0,15.0,86,0.00,,---,0.17,VWS V14.00,2013-01-02 20:51:00,
2013-01-02 15:56:00,49.4,45.4,30.07,North,11,7.0,15.0,86,0.00,,---,0.17,VWS V14.00,2013-01-02 20:56:00,
2013-01-02 16:01:00,49.3,45.3,30.07,NE,34,10.0,11.0,86,0.00,,---,0.17,VWS V14.00,2013-01-02 21:01:00,
2013-01-02 16:06:00,48.9,45.2,30.07,North,6,6.0,13.0,87,0.00,,---,0.17,VWS V14.00,2013-01-02 21:06:00,
2013-01-02 16:11:00,48.8,45.4,30.08,North,11,8.0,13.0,88,0.00,,---,0.17,VWS V14.00,2013-01-02 21:11:00,
2013-01-02 16:16:00,48.5,45.1,30.08,North,1,8.0,13.0,88,0.00,,---,0.17,VWS V14.00,2013-01-02 21:16:00,
2013-01-02 16:21:00,48.2,44.8,30.08,NNE,24,7.0,14.0,88,0.00,,---,0.17,VWS V14.00,2013-01-02 21:21:00,
2013-01-02 16:26:00,48.0,44.6,30.08,North,6,7.0,14.0,88,0.00,,---,0.17,VWS V14.00,2013-01-02 21:26:00,
2013-01-02 16:31:00,47.9,44.5,30.08,NNE,29,5.0,11.0,88,0.00,,---,0.17,VWS V14.00,2013-01-02 21:31:00,
2013-01-02 16:36:00,47.8,44.4,30.09,NE,37,9.0,15.0,88,0.00,,---,0.17,VWS V14.00,2013-01-02 21:36:00,
2013-01-02 16:41:00,47.7,44.3,30.08,NNE,12,9.0,15.0,88,0.00,,---,0.17,VWS V14.00,2013-01-02 21:41:00,
2013-01-02 16:46:00,47.7,44.6,30.09,North,2,7.0,15.0,89,0.00,,---,0.17,VWS V14.00,2013-01-02 21:46:00,
2013-01-02 16:51:00,47.2,44.1,30.09,NNE,21,6.0,15.0,89,0.00,,---,0.17,VWS V14.00,2013-01-02 21:51:00,
2013-01-02 16:56:00,46.9,44.1,30.10,NNE,21,8.0,15.0,90,0.00,,---,0.17,VWS V14.00,2013-01-02 21:56:00,
2013-01-02 17:01:00,46.6,44.1,30.10,North,8,7.0,11.0,91,0.00,,---,0.17,VWS V14.00,2013-01-02 22:01:00,
2013-01-02 17:06:00,46.4,43.9,30.09,NE,37,7.0,13.0,91,0.00,,---,0.17,VWS V14.00,2013-01-02 22:06:00,
2013-01-02 17:11:00,46.3,43.8,30.10,NNE,12,6.0,13.0,91,0.00,,---,0.17,VWS V14.00,2013-01-02 22:11:00,
2013-01-02 17:16:00,46.3,43.8,30.10,NNE,19,7.0,13.0,91,0.00,,---,0.17,VWS V14.00,2013-01-02 22:16:00,
2013-01-02 17:21:00,46.3,43.8,30.10,NNE,26,7.0,13.0,91,0.00,,---,0.17,VWS V14.00,2013-01-02 22:21:00,
2013-01-02 17:26:00,46.1,43.6,30.10,NNE,17,5.0,13.0,91,0.00,,---,0.17,VWS V14.00,2013-01-02 22:26:00,
2013-01-02 17:31:00,46.0,43.5,30.10,NNE,19,5.0,11.0,91,0.00,,---,0.17,VWS V14.00,2013-01-02 22:31:00,
2013-01-02 17:36:00,45.9,43.4,30.11,North,11,7.0,11.0,91,0.00,,---,0.17,VWS V14.00,2013-01-02 22:36:00,
2013-01-02 17:41:00,45.7,43.5,30.10,NE,36,5.0,11.0,92,0.00,,---,0.17,VWS V14.00,2013-01-02 22:41:00,
2013-01-02 17:46:00,45.7,43.5,30.11,NNE,13,4.0,11.0,92,0.00,,---,0.17,VWS V14.00,2013-01-02 22:46:00,
2013-01-02 17:51:00,45.6,43.4,30.11,NNE,19,6.0,11.0,92,0.00,,---,0.17,VWS V14.00,2013-01-02 22:51:00,
2013-01-02 17:56:00,45.6,43.4,30.11,NNE,13,4.0,11.0,92,0.00,,---,0.17,VWS V14.00,2013-01-02 22:56:00,
2013-01-02 18:01:00,45.5,43.3,30.12,North,2,6.0,9.0,92,0.00,,---,0.17,VWS V14.00,2013-01-02 23:01:00,
2013-01-02 18:06:00,45.4,43.2,30.12,NNE,15,5.0,9.0,92,0.00,,---,0.17,VWS V14.00,2013-01-02 23:06:00,
2013-01-02 18:11:00,45.4,43.2,30.12,NNE,21,7.0,9.0,92,0.00,,---,0.17,VWS V14.00,2013-01-02 23:11:00,
2013-01-02 18:16:00,45.3,43.1,30.12,North,8,6.0,9.0,92,0.00,,---,0.17,VWS V14.00,2013-01-02 23:16:00,
2013-01-02 18:21:00,45.1,42.9,30.12,North,2,7.0,10.0,92,0.00,,---,0.17,VWS V14.00,2013-01-02 23:21:00,
2013-01-02 18:26:00,45.1,42.9,30.12,NNE,16,5.0,10.0,92,0.00,,---,0.17,VWS V14.00,2013-01-02 23:26:00,
2013-01-02 18:31:00,44.9,42.7,30.12,NE,38,7.0,9.0,92,0.00,,---,0.17,VWS V14.00,2013-01-02 23:31:00,
2013-01-02 18:36:00,44.9,42.7,30.12,NNE,18,5.0,10.0,92,0.00,,---,0.17,VWS V14.00,2013-01-02 23:36:00,
2013-01-02 18:41:00,44.8,42.6,30.14,NNE,16,7.0,10.0,92,0.00,,---,0.17,VWS V14.00,2013-01-02 23:41:00,
2013-01-02 18:46:00,44.7,42.2,30.14,North,5,9.0,11.0,91,0.00,,---,0.17,VWS V14.00,2013-01-02 23:46:00,
2013-01-02 18:51:00,44.6,42.1,30.14,NNE,31,5.0,16.0,91,0.00,,---,0.17,VWS V14.00,2013-01-02 23:51:00,
2013-01-02 18:56:00,44.6,42.1,30.14,NNE,21,6.0,16.0,91,0.00,,---,0.17,VWS V14.00,2013-01-02 23:56:00,
2013-01-02 19:01:00,44.6,42.1,30.14,NNE,14,6.0,9.0,91,0.00,,---,0.17,VWS V14.00,2013-01-03 00:01:00,
2013-01-02 19:06:00,44.6,42.1,30.14,NNE,25,6.0,9.0,91,0.00,,---,0.17,VWS V14.00,2013-01-03 00:06:00,
2013-01-02 19:11:00,44.4,41.9,30.14,NNE,13,7.0,11.0,91,0.00,,---,0.17,VWS V14.00,2013-01-03 00:11:00,
2013-01-02 19:16:00,44.1,41.4,30.14,NNE,29,10.0,14.0,90,0.00,,---,0.17,VWS V14.00,2013-01-03 00:16:00,
2013-01-02 19:21:00,43.8,41.1,30.14,NNE,15,11.0,14.0,90,0.00,,---,0.17,VWS V14.00,2013-01-03 00:21:00,
2013-01-02 19:26:00,43.7,41.0,30.14,North,359,8.0,14.0,90,0.00,,---,0.17,VWS V14.00,2013-01-03 00:26:00,
2013-01-02 19:31:00,43.6,40.9,30.13,NNE,21,6.0,12.0,90,0.00,,---,0.17,VWS V14.00,2013-01-03 00:31:00,
2013-01-02 19:36:00,43.5,40.8,30.14,NE,39,11.0,13.0,90,0.00,,---,0.17,VWS V14.00,2013-01-03 00:36:00,
2013-01-02 19:41:00,43.5,40.8,30.15,North,10,5.0,13.0,90,0.00,,---,0.17,VWS V14.00,2013-01-03 00:41:00,
2013-01-02 19:46:00,43.6,40.9,30.16,NNE,30,8.0,13.0,90,0.00,,---,0.17,VWS V14.00,2013-01-03 00:46:00,
2013-01-02 19:51:00,43.5,40.5,30.16,North,2,6.0,13.0,89,0.00,,---,0.17,VWS V14.00,2013-01-03 00:51:00,
2013-01-02 19:56:00,43.5,40.5,30.16,NNE,23,6.0,13.0,89,0.00,,---,0.17,VWS V14.00,2013-01-03 00:56:00,
2013-01-02 20:01:00,43.5,40.2,30.15,NNE,23,5.0,13.0,88,0.00,,---,0.17,VWS V14.00,2013-01-03 01:01:00,
2013-01-02 20:06:00,43.5,40.2,30.15,NE,42,10.0,13.0,88,0.00,,---,0.17,VWS V14.00,2013-01-03 01:06:00,
2013-01-02 20:11:00,43.4,39.8,30.15,NNE,20,7.0,13.0,87,0.00,,---,0.17,VWS V14.00,2013-01-03 01:11:00,
2013-01-02 20:16:00,43.5,39.9,30.15,North,9,6.0,13.0,87,0.00,,---,0.17,VWS V14.00,2013-01-03 01:16:00,
2013-01-02 20:21:00,43.5,39.9,30.16,NNE,27,7.0,13.0,87,0.00,,---,0.17,VWS V14.00,2013-01-03 01:21:00,
2013-01-02 20:26:00,43.5,39.9,30.16,NNE,16,5.0,13.0,87,0.00,,---,0.17,VWS V14.00,2013-01-03 01:26:00,
2013-01-02 20:31:00,43.5,39.9,30.16,North,4,8.0,8.0,87,0.00,,---,0.17,VWS V14.00,2013-01-03 01:31:00,
2013-01-02 20:36:00,43.5,39.9,30.16,North,8,3.0,9.0,87,0.00,,---,0.17,VWS V14.00,2013-01-03 01:36:00,
2013-01-02 20:41:00,43.5,40.2,30.16,NNE,14,6.0,10.0,88,0.00,,---,0.17,VWS V14.00,2013-01-03 01:41:00,
2013-01-02 20:46:00,43.5,40.2,30.17,North,0,5.0,10.0,88,0.00,,---,0.17,VWS V14.00,2013-01-03 01:46:00,
2013-01-02 20:51:00,43.4,40.1,30.16,North,8,2.0,10.0,88,0.00,,---,0.17,VWS V14.00,2013-01-03 01:51:00,
2013-01-02 20:56:00,43.4,40.4,30.15,North,4,4.0,10.0,89,0.00,,---,0.17,VWS V14.00,2013-01-03 01:56:00,
2013-01-02 21:01:00,43.3,40.3,30.16,North,9,5.0,5.0,89,0.00,,---,0.17,VWS V14.00,2013-01-03 02:01:00,
2013-01-02 21:06:00,43.2,40.2,30.16,North,4,5.0,9.0,89,0.00,,---,0.17,VWS V14.00,2013-01-03 02:06:00,
2013-01-02 21:11:00,43.2,40.2,30.17,NW,325,3.0,9.0,89,0.00,,---,0.17,VWS V14.00,2013-01-03 02:11:00,
2013-01-02 21:16:00,43.1,40.1,30.18,NNW,345,4.0,9.0,89,0.00,,---,0.17,VWS V14.00,2013-01-03 02:16:00,
2013-01-02 21:21:00,43.1,40.4,30.17,North,2,3.0,9.0,90,0.00,,---,0.17,VWS V14.00,2013-01-03 02:21:00,
2013-01-02 21:26:00,43.1,40.4,30.17,NNE,20,5.0,9.0,90,0.00,,---,0.17,VWS V14.00,2013-01-03 02:26:00,
2013-01-02 21:31:00,43.1,40.4,30.16,NNE,14,4.0,8.0,90,0.00,,---,0.17,VWS V14.00,2013-01-03 02:31:00,
2013-01-02 21:36:00,43.1,40.4,30.16,NE,37,2.0,8.0,90,0.00,,---,0.17,VWS V14.00,2013-01-03 02:36:00,
2013-01-02 21:41:00,43.1,40.4,30.17,NE,35,3.0,8.0,90,0.00,,---,0.17,VWS V14.00,2013-01-03 02:41:00,
2013-01-02 21:46:00,43.1,40.4,30.17,NNE,29,3.0,8.0,90,0.00,,---,0.17,VWS V14.00,2013-01-03 02:46:00,
2013-01-02 21:51:00,43.1,40.4,30.17,NNE,33,4.0,8.0,90,0.00,,---,0.17,VWS V14.00,2013-01-03 02:51:00,
2013-01-02 21:56:00,43.1,40.4,30.16,NE,46,2.0,8.0,90,0.00,,---,0.17,VWS V14.00,2013-01-03 02:56:00,
2013-01-02 22:01:00,43.1,40.4,30.16,NE,47,2.0,3.0,90,0.00,,---,0.17,VWS V14.00,2013-01-03 03:01:00,
2013-01-02 22:06:00,43.0,40.3,30.17,NNE,18,4.0,5.0,90,0.00,,---,0.17,VWS V14.00,2013-01-03 03:06:00,
2013-01-02 22:11:00,43.0,40.3,30.17,NNE,16,3.0,5.0,90,0.00,,---,0.17,VWS V14.00,2013-01-03 03:11:00,
2013-01-02 22:16:00,43.0,40.6,30.18,NNE,19,3.0,5.0,91,0.00,,---,0.17,VWS V14.00,2013-01-03 03:16:00,
2013-01-02 22:21:00,43.0,40.3,30.18,North,0,3.0,7.0,90,0.00,,---,0.17,VWS V14.00,2013-01-03 03:21:00,
2013-01-02 22:26:00,43.0,40.3,30.17,NNE,21,4.0,7.0,90,0.00,,---,0.17,VWS V14.00,2013-01-03 03:26:00,
2013-01-02 22:32:00,42.9,40.2,30.17,NNE,24,3.0,8.0,90,0.00,,---,0.17,VWS V14.00,2013-01-03 03:32:00,
2013-01-02 22:37:00,42.9,40.2,30.18,NNE,23,6.0,8.0,90,0.00,,---,0.17,VWS V14.00,2013-01-03 03:37:00,
2013-01-02 22:42:00,42.9,40.2,30.18,NNE,15,5.0,8.0,90,0.00,,---,0.17,VWS V14.00,2013-01-03 03:42:00,
2013-01-02 22:47:00,42.8,39.8,30.18,North,8,5.0,10.0,89,0.00,,---,0.17,VWS V14.00,2013-01-03 03:47:00,
2013-01-02 22:52:00,42.8,39.8,30.19,NNE,14,6.0,10.0,89,0.00,,---,0.17,VWS V14.00,2013-01-03 03:52:00,
2013-01-02 22:57:00,42.7,39.7,30.18,NNE,23,7.0,10.0,89,0.00,,---,0.17,VWS V14.00,2013-01-03 03:57:00,
2013-01-02 23:02:00,42.7,39.7,30.18,NE,43,7.0,9.0,89,0.00,,---,0.17,VWS V14.00,2013-01-03 04:02:00,
2013-01-02 23:07:00,42.6,39.6,30.17,ENE,71,6.0,9.0,89,0.00,,---,0.17,VWS V14.00,2013-01-03 04:07:00,
2013-01-02 23:12:00,42.4,39.4,30.17,NNE,26,5.0,10.0,89,0.00,,---,0.17,VWS V14.00,2013-01-03 04:12:00,
2013-01-02 23:17:00,42.4,39.4,30.18,NE,48,5.0,10.0,89,0.00,,---,0.17,VWS V14.00,2013-01-03 04:17:00,
2013-01-02 23:22:00,42.4,39.4,30.18,NE,39,7.0,10.0,89,0.00,,---,0.17,VWS V14.00,2013-01-03 04:22:00,
2013-01-02 23:27:00,42.4,39.1,30.18,NNE,15,5.0,10.0,88,0.00,,---,0.17,VWS V14.00,2013-01-03 04:27:00,
2013-01-02 23:32:00,42.3,39.0,30.18,NE,50,3.0,6.0,88,0.00,,---,0.17,VWS V14.00,2013-01-03 04:32:00,
2013-01-02 23:37:00,42.3,39.0,30.19,NNE,21,2.0,6.0,88,0.00,,---,0.17,VWS V14.00,2013-01-03 04:37:00,
2013-01-02 23:42:00,42.3,39.3,30.20,North,351,4.0,6.0,89,0.00,,---,0.17,VWS V14.00,2013-01-03 04:42:00,
2013-01-02 23:47:00,42.3,39.3,30.20,NNW,343,3.0,6.0,89,0.00,,---,0.17,VWS V14.00,2013-01-03 04:47:00,
2013-01-02 23:52:00,42.2,39.2,30.20,North,2,5.0,7.0,89,0.00,,---,0.17,VWS V14.00,2013-01-03 04:52:00,
2013-01-02 23:57:00,42.2,39.2,30.18,NNE,17,3.0,7.0,89,0.00,,---,0.17,VWS V14.00,2013-01-03 04:57:00,